createdAt,value
2019-02-06T00:01:42.452Z,47.67
2019-02-06T00:04:10.871Z,44.50
2019-02-06T00:06:39.309Z,41.50
2019-02-06T00:09:10.910Z,49.03
2019-02-06T00:11:39.319Z,51.08
2019-02-06T00:14:07.758Z,44.38
2019-02-06T00:16:36.167Z,47.95
2019-02-06T00:19:04.589Z,48.48
2019-02-06T00:21:33.132Z,49.77
2019-02-06T00:24:01.532Z,49.73
2019-02-06T00:26:29.948Z,45.90
2019-02-06T00:28:58.379Z,50.88
2019-02-06T00:31:26.872Z,49.20
2019-02-06T00:33:55.290Z,47.20
2019-02-06T00:36:23.737Z,46.02
2019-02-06T00:38:52.460Z,46.75
2019-02-06T00:41:20.870Z,48.95
2019-02-06T00:43:49.328Z,45.20
2019-02-06T00:46:17.732Z,39.55
2019-02-06T00:48:46.135Z,43.45
2019-02-06T00:51:14.574Z,44.90
2019-02-06T00:53:42.991Z,41.40
2019-02-06T00:56:11.391Z,47.83
2019-02-06T00:58:39.837Z,49.50
2019-02-06T01:01:08.243Z,47.10
2019-02-06T01:03:36.661Z,59.23
2019-02-06T01:06:05.172Z,60.92
2019-02-06T01:08:33.582Z,55.85
2019-02-06T01:11:02.509Z,47.55
2019-02-06T01:13:30.940Z,54.18
2019-02-06T01:15:59.352Z,48.38
2019-02-06T01:18:27.774Z,41.65
2019-02-06T01:20:56.214Z,49.50
2019-02-06T01:23:24.622Z,48.42
2019-02-06T01:25:53.047Z,54.55
2019-02-06T01:28:21.891Z,58.48
2019-02-06T01:30:54.926Z,55.15
2019-02-06T01:33:23.345Z,56.50
2019-02-06T01:35:51.779Z,53.05
2019-02-06T01:38:20.189Z,48.75
2019-02-06T01:40:48.613Z,53.35
2019-02-06T01:43:17.446Z,44.67
2019-02-06T01:45:46.337Z,47.40
2019-02-06T01:48:14.752Z,42.50
2019-02-06T01:50:43.199Z,45.98
2019-02-06T01:53:11.613Z,39.67
2019-02-06T01:55:40.023Z,41.48
2019-02-06T01:58:08.455Z,36.25
2019-02-06T02:00:37.169Z,48.40
2019-02-06T02:03:05.587Z,42.10
2019-02-06T02:05:34.095Z,43.48
2019-02-06T02:08:02.507Z,40.48
2019-02-06T02:10:30.921Z,41.90
2019-02-06T02:12:59.360Z,46.08
2019-02-06T02:15:27.787Z,47.67
2019-02-06T02:17:56.597Z,43.55
2019-02-06T02:20:25.035Z,53.08
2019-02-06T02:22:53.432Z,66.45
2019-02-06T02:25:21.858Z,56.92
2019-02-06T02:27:50.296Z,56.37
2019-02-06T02:30:25.884Z,52.48
2019-02-06T02:32:54.316Z,50.52
2019-02-06T02:35:22.731Z,49.08
2019-02-06T02:37:51.136Z,50.08
2019-02-06T02:40:19.589Z,50.52
2019-02-06T02:42:48.014Z,53.60
2019-02-06T02:45:17.541Z,49.95
2019-02-06T02:47:46.341Z,46.73
2019-02-06T02:50:14.754Z,47.15
2019-02-06T02:52:43.285Z,42.38
2019-02-06T02:55:14.802Z,42.50
2019-02-06T02:57:43.273Z,43.40
2019-02-06T03:00:20.859Z,42.40
2019-02-06T03:02:59.536Z,42.55
2019-02-06T03:05:29.841Z,112.35
2019-02-06T03:07:58.262Z,346.25
2019-02-06T03:10:26.675Z,588.27
2019-02-06T03:12:55.175Z,468.48
2019-02-06T03:15:23.689Z,468.17
2019-02-06T03:17:52.201Z,799.40
2019-02-06T03:20:20.756Z,384.92
2019-02-06T03:22:49.449Z,654.70
2019-02-06T03:25:17.861Z,484.43
2019-02-06T03:27:46.320Z,343.40
2019-02-06T03:30:17.064Z,307.83
2019-02-06T03:32:45.474Z,286.62
2019-02-06T03:35:14.172Z,494.15
2019-02-06T03:37:42.693Z,296.55
2019-02-06T03:40:16.589Z,447.67
2019-02-06T03:42:45.051Z,520.30
2019-02-06T03:45:13.997Z,513.83
2019-02-06T03:47:42.414Z,390.65
2019-02-06T03:50:18.862Z,504.05
2019-02-06T03:52:47.269Z,463.00
2019-02-06T03:55:15.827Z,415.73
2019-02-06T03:57:44.259Z,298.50
2019-02-06T04:00:20.549Z,439.40
2019-02-06T04:02:48.996Z,489.78
2019-02-06T04:05:17.410Z,660.85
2019-02-06T04:07:45.828Z,659.03
2019-02-06T04:10:16.564Z,413.75
2019-02-06T04:12:44.986Z,483.35
2019-02-06T04:15:13.712Z,554.25
2019-02-06T04:17:42.173Z,753.20
2019-02-06T04:20:18.296Z,602.08
2019-02-06T04:22:47.127Z,713.85
2019-02-06T04:25:15.539Z,274.65
2019-02-06T04:27:43.966Z,665.62
2019-02-06T04:30:19.647Z,526.50
2019-02-06T04:32:48.065Z,501.98
2019-02-06T04:35:16.469Z,450.57
2019-02-06T04:37:44.926Z,577.88
2019-02-06T04:40:18.563Z,389.27
2019-02-06T04:42:47.360Z,602.65
2019-02-06T04:45:17.460Z,487.12
2019-02-06T04:47:45.881Z,418.87
2019-02-06T04:50:15.254Z,298.52
2019-02-06T04:52:43.698Z,421.35
2019-02-06T04:55:14.601Z,292.73
2019-02-06T04:57:43.024Z,232.40
2019-02-06T05:00:20.615Z,201.18
2019-02-06T05:02:49.035Z,214.75
2019-02-06T05:05:17.445Z,390.07
2019-02-06T05:07:45.898Z,269.25
2019-02-06T05:10:14.854Z,264.82
2019-02-06T05:12:43.574Z,305.12
2019-02-06T05:15:13.547Z,281.02
2019-02-06T05:17:41.979Z,264.32
2019-02-06T05:20:13.650Z,428.30
2019-02-06T05:22:42.213Z,233.45
2019-02-06T05:25:10.614Z,287.65
2019-02-06T05:27:39.035Z,177.45
2019-02-06T05:30:10.115Z,137.47
2019-02-06T05:32:42.803Z,127.38
2019-02-06T05:35:08.595Z,144.82
2019-02-06T05:37:37.043Z,255.35
2019-02-06T05:40:08.101Z,165.82
2019-02-06T05:42:36.518Z,96.82
2019-02-06T05:45:08.763Z,82.00
2019-02-06T05:47:37.163Z,79.20
2019-02-06T05:50:08.975Z,47.40
2019-02-06T05:52:37.428Z,51.73
2019-02-06T05:55:06.971Z,79.30
2019-02-06T05:57:35.397Z,130.52
2019-02-06T06:00:07.774Z,175.45
2019-02-06T06:02:36.182Z,66.65
2019-02-06T06:05:05.566Z,78.90
2019-02-06T06:07:44.816Z,136.82
2019-02-06T06:10:06.288Z,181.25
2019-02-06T06:12:34.696Z,158.18
2019-02-06T06:15:03.908Z,218.52
2019-02-06T06:17:32.326Z,243.85
2019-02-06T06:20:00.742Z,215.40
2019-02-06T06:22:29.179Z,93.25
2019-02-06T06:24:57.606Z,111.30
2019-02-06T06:27:26.024Z,408.90
2019-02-06T06:29:54.465Z,189.37
2019-02-06T06:32:23.385Z,237.10
2019-02-06T06:34:51.797Z,126.67
2019-02-06T06:37:20.250Z,165.90
2019-02-06T06:39:48.699Z,300.65
2019-02-06T06:42:17.085Z,168.32
2019-02-06T06:44:45.530Z,247.37
2019-02-06T06:47:14.509Z,251.92
2019-02-06T06:49:43.235Z,312.68
2019-02-06T06:52:11.685Z,161.60
2019-02-06T06:54:40.088Z,159.03
2019-02-06T06:57:08.497Z,276.55
2019-02-06T06:59:36.969Z,315.77
2019-02-06T07:02:05.361Z,275.75
2019-02-06T07:04:34.271Z,150.32
2019-02-06T07:07:02.732Z,191.55
2019-02-06T07:09:31.143Z,300.77
2019-02-06T07:11:59.559Z,102.82
2019-02-06T07:14:28.004Z,190.20
2019-02-06T07:16:56.424Z,118.35
2019-02-06T07:19:24.853Z,98.67
2019-02-06T07:21:53.674Z,72.05
2019-02-06T07:24:22.082Z,101.42
2019-02-06T07:26:50.504Z,71.12
2019-02-06T07:29:18.945Z,106.55
2019-02-06T07:31:47.365Z,106.47
2019-02-06T07:34:15.790Z,56.68
2019-02-06T07:36:44.232Z,116.15
2019-02-06T07:39:12.657Z,96.05
2019-02-06T07:41:41.085Z,139.40
2019-02-06T07:44:09.524Z,134.05
2019-02-06T07:46:37.942Z,111.57
2019-02-06T07:49:06.354Z,57.05
2019-02-06T07:51:34.785Z,66.05
2019-02-06T07:54:03.502Z,114.75
2019-02-06T07:56:31.917Z,95.00
2019-02-06T07:59:00.353Z,88.95
2019-02-06T08:01:28.764Z,65.17
2019-02-06T08:03:57.202Z,106.25
2019-02-06T08:06:25.647Z,113.55
2019-02-06T08:08:54.059Z,354.07
2019-02-06T08:11:22.776Z,288.60
2019-02-06T08:13:51.313Z,246.57
2019-02-06T08:16:19.814Z,137.90
2019-02-06T08:18:48.255Z,100.55
2019-02-06T08:21:16.695Z,109.87
2019-02-06T08:23:45.098Z,117.30
2019-02-06T08:26:13.512Z,65.78
2019-02-06T08:28:42.252Z,126.75
2019-02-06T08:31:10.666Z,59.40
2019-02-06T08:33:39.093Z,80.47
2019-02-06T08:36:07.527Z,69.22
2019-02-06T08:38:47.089Z,66.80
2019-02-06T08:41:06.011Z,142.45
2019-02-06T08:43:34.742Z,66.40
2019-02-06T08:46:03.164Z,119.57
2019-02-06T08:48:31.559Z,111.47
2019-02-06T08:51:00.005Z,205.18
2019-02-06T08:53:28.424Z,120.42
2019-02-06T08:55:56.837Z,121.33
2019-02-06T08:58:25.280Z,101.85
2019-02-06T09:00:54.105Z,124.45
2019-02-06T09:03:22.521Z,64.25
2019-02-06T09:05:50.972Z,114.85
2019-02-06T09:08:19.372Z,58.52
2019-02-06T09:10:47.863Z,62.78
2019-02-06T09:13:16.340Z,64.58
2019-02-06T09:15:44.744Z,118.80
2019-02-06T09:18:13.166Z,119.02
2019-02-06T09:20:41.616Z,106.17
2019-02-06T09:23:10.017Z,75.25
2019-02-06T09:25:38.469Z,91.45
2019-02-06T09:28:06.864Z,86.53
2019-02-06T09:30:35.736Z,80.40
2019-02-06T09:33:04.630Z,76.30
2019-02-06T09:35:33.076Z,80.10
2019-02-06T09:38:01.484Z,75.55
2019-02-06T09:40:31.438Z,71.87
2019-02-06T09:42:59.877Z,55.85
2019-02-06T09:45:28.290Z,42.03
2019-02-06T09:47:56.718Z,37.58
2019-02-06T09:50:36.191Z,40.17
2019-02-06T09:53:04.762Z,37.85
2019-02-06T09:55:33.192Z,36.55
2019-02-06T09:58:01.639Z,43.83
2019-02-06T10:00:37.673Z,41.90
2019-02-06T10:03:07.824Z,37.58
2019-02-06T10:05:36.297Z,36.63
2019-02-06T10:08:04.784Z,31.73
2019-02-06T10:10:33.240Z,33.80
2019-02-06T10:13:01.645Z,37.83
2019-02-06T10:15:32.885Z,37.33
2019-02-06T10:18:01.786Z,37.67
2019-02-06T10:20:33.296Z,37.42
2019-02-06T10:23:01.728Z,38.05
2019-02-06T10:25:30.394Z,36.08
2019-02-06T10:27:58.805Z,40.38
2019-02-06T10:30:32.731Z,38.33
2019-02-06T10:35:29.179Z,40.80
2019-02-06T10:37:57.596Z,34.98
2019-02-06T10:40:26.171Z,38.08
2019-02-06T10:42:54.577Z,33.05
2019-02-06T10:45:23.000Z,28.77
2019-02-06T10:47:51.432Z,25.27
2019-02-06T10:50:37.961Z,27.50
2019-02-06T10:53:06.407Z,23.22
2019-02-06T10:55:34.818Z,23.35
2019-02-06T10:58:03.241Z,21.73
2019-02-06T11:00:34.099Z,21.80
2019-02-06T11:03:02.509Z,25.05
2019-02-06T11:05:30.939Z,23.87
2019-02-06T11:07:59.365Z,21.05
2019-02-06T11:10:28.726Z,20.70
2019-02-06T11:12:57.155Z,16.93
2019-02-06T11:15:25.662Z,17.55
2019-02-06T11:17:54.390Z,18.95
2019-02-06T11:20:25.149Z,15.80
2019-02-06T11:22:53.588Z,17.30
2019-02-06T11:25:22.020Z,20.20
2019-02-06T11:27:50.421Z,16.20
2019-02-06T11:30:30.721Z,17.20
2019-02-06T11:32:59.211Z,17.57
2019-02-06T11:35:27.627Z,16.30
2019-02-06T11:37:56.092Z,18.17
2019-02-06T11:40:25.056Z,14.68
2019-02-06T11:42:53.915Z,17.65
2019-02-06T11:45:31.523Z,16.45
2019-02-06T11:48:00.041Z,14.25
2019-02-06T11:50:30.092Z,14.25
2019-02-06T11:52:58.547Z,15.63
2019-02-06T11:55:29.203Z,14.18
2019-02-06T11:57:57.633Z,15.75
2019-02-06T12:00:37.286Z,13.10
2019-02-06T12:03:05.784Z,13.08
2019-02-06T12:05:34.222Z,14.23
2019-02-06T12:08:02.653Z,13.78
2019-02-06T12:10:31.070Z,15.30
2019-02-06T12:12:59.498Z,13.50
2019-02-06T12:15:27.950Z,13.43
2019-02-06T12:17:56.361Z,12.50
2019-02-06T12:20:25.717Z,13.10
2019-02-06T12:22:54.173Z,12.43
2019-02-06T12:25:22.587Z,16.73
2019-02-06T12:27:53.341Z,15.98
2019-02-06T12:30:25.182Z,13.35
2019-02-06T12:32:53.601Z,12.70
2019-02-06T12:35:22.015Z,13.22
2019-02-06T12:37:50.558Z,11.40
2019-02-06T12:40:21.537Z,12.30
2019-02-06T12:42:49.209Z,11.97
2019-02-06T12:45:22.776Z,11.85
2019-02-06T12:47:51.502Z,13.30
2019-02-06T12:50:21.360Z,12.33
2019-02-06T12:52:49.802Z,11.88
2019-02-06T12:55:36.190Z,23.95
2019-02-06T12:58:05.283Z,16.90
2019-02-06T13:00:36.032Z,14.63
2019-02-06T13:03:04.620Z,14.55
2019-02-06T13:05:33.073Z,13.72
2019-02-06T13:08:01.488Z,12.50
2019-02-06T13:10:33.804Z,13.32
2019-02-06T13:12:59.990Z,14.33
2019-02-06T13:15:28.422Z,14.63
2019-02-06T13:17:56.826Z,15.93
2019-02-06T13:20:27.519Z,10.32
2019-02-06T13:22:55.995Z,10.38
2019-02-06T13:25:24.409Z,7.85
2019-02-06T13:27:52.857Z,8.33
2019-02-06T13:30:27.190Z,8.38
2019-02-06T13:32:55.776Z,9.43
2019-02-06T13:35:24.227Z,7.22
2019-02-06T13:37:52.636Z,7.37
2019-02-06T13:40:28.755Z,15.13
2019-02-06T13:42:58.230Z,10.40
2019-02-06T13:45:35.864Z,9.40
2019-02-06T13:48:04.819Z,7.33
2019-02-06T13:50:33.232Z,7.83
2019-02-06T13:53:01.673Z,7.20
2019-02-06T13:55:30.106Z,8.63
2019-02-06T13:57:58.527Z,8.00
2019-02-06T14:00:30.665Z,11.12
2019-02-06T14:02:59.106Z,10.23
2019-02-06T14:05:29.036Z,7.70
2019-02-06T14:08:03.175Z,8.40
2019-02-06T14:10:32.431Z,10.15
2019-02-06T14:13:01.245Z,7.87
2019-02-06T14:15:41.175Z,8.93
2019-02-06T14:18:09.857Z,8.63
2019-02-06T14:20:38.399Z,9.98
2019-02-06T14:23:10.103Z,9.00
2019-02-06T14:25:42.309Z,10.80
2019-02-06T14:28:14.017Z,11.05
2019-02-06T14:31:06.542Z,10.53
2019-02-06T14:34:02.340Z,9.55
2019-02-06T14:36:45.882Z,9.98
2019-02-06T14:39:32.762Z,11.15
2019-02-06T14:42:10.208Z,9.23
2019-02-06T14:44:48.021Z,12.00
2019-02-06T14:47:22.776Z,13.58
2019-02-06T14:50:09.131Z,11.50
2019-02-06T14:52:46.762Z,12.33
2019-02-06T14:55:24.404Z,11.45
2019-02-06T14:58:17.310Z,11.90
2019-02-06T15:00:59.474Z,13.10
2019-02-06T15:03:37.009Z,11.15
2019-02-06T15:06:25.161Z,22.73
2019-02-06T15:09:09.053Z,13.25
2019-02-06T15:11:43.219Z,13.98
2019-02-06T15:17:15.470Z,11.85
2019-02-06T15:20:03.671Z,14.63
2019-02-06T15:23:07.181Z,14.47
2019-02-06T15:25:38.851Z,13.38
2019-02-06T15:28:31.484Z,14.83
2019-02-06T15:31:26.095Z,14.50
2019-02-06T15:34:15.859Z,14.70
2019-02-06T15:36:47.929Z,17.42
2019-02-06T15:40:54.335Z,14.68
2019-02-06T15:43:39.008Z,17.37
2019-02-06T15:46:31.389Z,16.67
2019-02-06T15:49:16.073Z,14.07
2019-02-06T15:52:06.587Z,12.85
2019-02-06T15:54:48.474Z,14.93
2019-02-06T15:57:33.181Z,14.90
2019-02-06T16:00:14.711Z,14.93
2019-02-06T16:02:53.380Z,15.58
2019-02-06T16:05:39.395Z,21.77
2019-02-06T16:08:36.027Z,22.22
2019-02-06T16:11:27.733Z,23.52
2019-02-06T16:14:24.409Z,16.75
2019-02-06T16:17:00.259Z,18.20
2019-02-06T16:19:51.052Z,18.85
2019-02-06T16:22:35.397Z,207.18
2019-02-06T16:25:29.037Z,32.98
2019-02-06T16:28:17.952Z,31.00
2019-02-06T16:30:59.554Z,31.05
2019-02-06T16:33:34.746Z,33.70
2019-02-06T16:36:25.138Z,26.27
2019-02-06T16:39:08.969Z,35.15
2019-02-06T16:41:53.317Z,23.42
2019-02-06T16:44:30.786Z,32.10
2019-02-06T16:47:24.433Z,26.02
2019-02-06T16:50:02.893Z,19.65
2019-02-06T16:52:38.680Z,20.08
2019-02-06T16:55:27.538Z,33.55
2019-02-06T16:58:08.861Z,20.37
2019-02-06T17:00:59.483Z,20.92
2019-02-06T17:03:50.160Z,21.23
2019-02-06T17:06:34.077Z,23.65
2019-02-06T17:09:23.260Z,19.92
2019-02-06T17:12:16.205Z,19.23
2019-02-06T17:14:48.779Z,61.33
2019-02-06T17:17:21.341Z,53.00
2019-02-06T17:19:56.598Z,27.65
2019-02-06T17:22:42.948Z,48.28
2019-02-06T17:25:24.164Z,51.35
2019-02-06T17:28:05.399Z,46.48
2019-02-06T17:30:46.577Z,31.25
2019-02-06T17:33:27.906Z,36.80
2019-02-06T17:36:24.944Z,32.20
2019-02-06T17:39:23.767Z,28.20
2019-02-06T17:42:15.904Z,22.70
2019-02-06T17:45:12.344Z,63.95
2019-02-06T17:48:03.386Z,53.30
2019-02-06T17:50:50.968Z,38.38
2019-02-06T17:53:29.319Z,64.47
2019-02-06T17:55:58.619Z,48.83
2019-02-06T17:58:29.893Z,52.85
2019-02-06T18:01:03.810Z,80.90
2019-02-06T18:03:36.620Z,82.53
2019-02-06T18:06:06.058Z,79.85
2019-02-06T18:08:37.054Z,81.72
2019-02-06T18:11:06.541Z,60.40
2019-02-06T18:13:35.849Z,42.43
2019-02-06T18:16:05.726Z,33.55
2019-02-06T18:18:35.054Z,33.05
2019-02-06T18:21:04.495Z,25.40
2019-02-06T18:23:33.811Z,25.88
2019-02-06T18:26:03.210Z,27.20
2019-02-06T18:28:32.524Z,29.63
2019-02-06T18:31:01.858Z,30.02
2019-02-06T18:33:31.603Z,24.75
2019-02-06T18:36:00.897Z,55.33
2019-02-06T18:38:32.142Z,83.55
2019-02-06T18:41:01.270Z,69.72
2019-02-06T18:43:30.595Z,60.28
2019-02-06T18:45:59.914Z,50.73
2019-02-06T18:48:29.297Z,53.87
2019-02-06T18:50:58.919Z,52.43
2019-02-06T18:53:28.248Z,55.95
2019-02-06T18:55:57.642Z,50.00
2019-02-06T18:58:27.582Z,51.80
2019-02-06T19:00:57.186Z,43.42
2019-02-06T19:03:32.576Z,39.92
2019-02-06T19:06:01.939Z,42.43
2019-02-06T19:08:31.668Z,39.98
2019-02-06T19:11:00.995Z,42.83
2019-02-06T19:13:30.651Z,39.78
2019-02-06T19:15:59.950Z,39.05
2019-02-06T19:18:29.284Z,40.33
2019-02-06T19:20:58.646Z,42.58
2019-02-06T19:23:27.980Z,43.73
2019-02-06T19:25:57.630Z,43.73
2019-02-06T19:28:26.990Z,41.88
2019-02-06T19:30:56.318Z,45.73
2019-02-06T19:33:26.727Z,66.40
2019-02-06T19:35:56.112Z,58.60
2019-02-06T19:38:25.526Z,40.33
2019-02-06T19:40:54.935Z,42.90
2019-02-06T19:43:24.470Z,28.42
2019-02-06T19:45:53.831Z,25.80
2019-02-06T19:48:23.237Z,30.20
2019-02-06T19:50:53.150Z,74.05
2019-02-06T19:53:22.453Z,71.50
2019-02-06T19:55:52.165Z,72.37
2019-02-06T19:58:21.506Z,58.52
2019-02-06T20:00:51.375Z,48.95
2019-02-06T20:03:20.694Z,56.02
2019-02-06T20:05:50.022Z,44.73
2019-02-06T20:08:19.405Z,45.38
2019-02-06T20:10:51.053Z,42.25
2019-02-06T20:13:20.451Z,36.68
2019-02-06T20:15:49.755Z,34.38
2019-02-06T20:18:19.169Z,31.42
2019-02-06T20:20:48.486Z,27.80
2019-02-06T20:23:17.790Z,26.50
2019-02-06T20:25:47.139Z,23.52
2019-02-06T20:28:16.473Z,47.53
2019-02-06T20:30:45.817Z,54.83
2019-02-06T20:33:15.544Z,44.30
2019-02-06T20:35:44.859Z,54.33
2019-02-06T20:38:14.175Z,48.80
2019-02-06T20:40:44.605Z,50.30
2019-02-06T20:43:21.685Z,46.08
2019-02-06T20:45:44.947Z,37.48
2019-02-06T20:48:14.324Z,33.45
2019-02-06T20:50:44.003Z,29.07
2019-02-06T20:53:13.341Z,31.55
2019-02-06T20:55:42.638Z,26.70
2019-02-06T20:58:11.941Z,33.90
2019-02-06T21:00:44.156Z,74.03
2019-02-06T21:03:13.453Z,67.47
2019-02-06T21:05:43.343Z,62.00
2019-02-06T21:08:12.659Z,59.65
2019-02-06T21:10:41.964Z,56.92
2019-02-06T21:13:11.259Z,58.73
2019-02-06T21:15:40.593Z,45.08
2019-02-06T21:18:09.877Z,39.23
2019-02-06T21:20:39.172Z,34.08
2019-02-06T21:23:08.524Z,34.60
2019-02-06T21:25:37.820Z,33.30
2019-02-06T21:28:07.211Z,35.43
2019-02-06T21:30:39.222Z,54.23
2019-02-06T21:33:08.536Z,73.17
2019-02-06T21:35:37.981Z,57.55
2019-02-06T21:38:07.315Z,49.40
2019-02-06T21:40:37.652Z,40.52
2019-02-06T21:43:07.350Z,34.00
2019-02-06T21:45:36.672Z,30.57
2019-02-06T21:48:06.518Z,32.75
2019-02-06T21:50:36.121Z,35.17
2019-02-06T21:53:05.472Z,34.80
2019-02-06T21:55:34.775Z,57.27
2019-02-06T21:58:04.065Z,65.83
2019-02-06T22:01:01.222Z,65.42
2019-02-06T22:03:31.093Z,68.78
2019-02-06T22:06:00.410Z,72.60
2019-02-06T22:08:29.750Z,58.02
2019-02-06T22:10:59.041Z,61.48
2019-02-06T22:13:28.361Z,71.77
2019-02-06T22:15:57.685Z,64.05
2019-02-06T22:18:26.990Z,65.85
2019-02-06T22:20:56.301Z,64.12
2019-02-06T22:23:25.647Z,65.90
2019-02-06T22:25:54.971Z,64.80
2019-02-06T22:28:24.305Z,56.50
2019-02-06T22:30:53.626Z,38.10
2019-02-06T22:33:23.190Z,47.15
2019-02-06T22:35:52.515Z,45.92
2019-02-06T22:38:21.937Z,33.85
2019-02-06T22:40:51.339Z,37.88
2019-02-06T22:43:20.652Z,28.67
2019-02-06T22:45:49.982Z,36.10
2019-02-06T22:48:19.282Z,37.10
2019-02-06T22:50:48.597Z,36.93
2019-02-06T22:53:17.919Z,41.42
2019-02-06T22:55:47.224Z,42.85
2019-02-06T22:58:16.537Z,47.05
2019-02-06T23:00:56.200Z,67.35
2019-02-06T23:03:31.675Z,60.23
2019-02-06T23:06:01.076Z,58.20
2019-02-06T23:08:30.445Z,57.17
2019-02-06T23:11:00.060Z,44.67
2019-02-06T23:13:29.393Z,42.25
2019-02-06T23:15:58.707Z,54.83
2019-02-06T23:18:28.025Z,50.33
2019-02-06T23:20:57.417Z,59.45
2019-02-06T23:23:26.729Z,68.20
2019-02-06T23:25:56.443Z,51.28
2019-02-06T23:28:25.757Z,53.70
2019-02-06T23:31:01.334Z,36.40
2019-02-06T23:33:31.735Z,47.85
2019-02-06T23:36:01.039Z,45.92
2019-02-06T23:38:32.221Z,46.33
2019-02-06T23:41:01.517Z,39.80
2019-02-06T23:43:30.829Z,34.43
2019-02-06T23:46:00.151Z,43.78
2019-02-06T23:48:29.453Z,36.00
2019-02-06T23:50:58.770Z,38.08
2019-02-06T23:53:28.392Z,39.15
2019-02-06T23:55:57.707Z,38.73
2019-02-06T23:58:27.012Z,40.17
